Time;durP1;ratioP1;P1;durP2;ratioP2;P2;SDS_P1;SDS_P2;PMS_P1;PMS_P2;Temp;Humidity;BMP_temperature;BMP_pressure;BME280_temperature;BME280_humidity;BME280_pressure;Samples;Min_cycle;Max_cycle;Signal;HPM_P1;HPM_P2
2024/01/05 00:02:25;;;;;;;2.67;2.17;;;15.20;99.90;;;;;;5013899;28;20192;-90
2024/01/05 00:04:50;;;;;;;3.80;2.10;;;15.20;99.90;;;;;;5013333;28;20183;-89
2024/01/05 00:07:16;;;;;;;3.67;2.10;;;15.20;99.90;;;;;;5013438;28;20182;-90
2024/01/05 00:09:42;;;;;;;3.77;1.93;;;15.20;99.90;;;;;;5013729;28;20208;-90
2024/01/05 00:12:11;;;;;;;4.17;2.10;;;15.20;99.90;;;;;;5013863;28;20207;-89
2024/01/05 00:14:41;;;;;;;3.73;2.00;;;15.20;99.90;;;;;;4997482;28;20261;-89
2024/01/05 00:17:10;;;;;;;2.90;1.93;;;15.20;99.90;;;;;;5013890;28;20570;-90
2024/01/05 00:19:36;;;;;;;4.77;2.00;;;15.20;99.90;;;;;;5012320;28;20281;-89
2024/01/05 00:22:10;;;;;;;3.40;2.20;;;15.20;99.90;;;;;;5012050;28;20269;-90
2024/01/05 00:24:37;;;;;;;2.27;1.87;;;15.20;99.90;;;;;;5012532;28;20181;-90
2024/01/05 00:27:03;;;;;;;3.20;2.13;;;15.20;99.90;;;;;;5011501;28;20247;-90
2024/01/05 00:29:32;;;;;;;3.30;2.10;;;15.20;99.90;;;;;;5011139;28;20183;-90
2024/01/05 00:32:00;;;;;;;3.33;2.00;;;15.20;99.90;;;;;;5010768;28;20238;-90
2024/01/05 00:34:26;;;;;;;3.73;2.07;;;15.20;99.90;;;;;;5011912;28;20226;-90
2024/01/05 00:36:55;;;;;;;3.10;1.93;;;15.20;99.90;;;;;;5010977;28;20184;-90
2024/01/05 00:39:23;;;;;;;2.83;2.00;;;15.20;99.90;;;;;;5010797;28;20231;-90
2024/01/05 00:41:54;;;;;;;3.63;2.07;;;15.20;99.90;;;;;;5011104;28;20177;-90
2024/01/05 00:44:23;;;;;;;3.27;2.10;;;15.20;99.90;;;;;;5012656;28;20203;-91
2024/01/05 00:46:52;;;;;;;3.43;2.00;;;15.20;99.90;;;;;;5011894;28;20369;-90
2024/01/05 00:49:17;;;;;;;3.20;2.10;;;15.20;99.90;;;;;;5012441;28;20213;-90
2024/01/05 00:51:46;;;;;;;2.80;2.10;;;15.20;99.90;;;;;;5013585;28;20240;-90
2024/01/05 00:54:17;;;;;;;3.53;1.80;;;15.20;99.90;;;;;;5012836;28;20267;-91
2024/01/05 00:56:44;;;;;;;3.63;2.10;;;15.20;99.90;;;;;;5015258;28;20175;-90
2024/01/05 00:59:11;;;;;;;2.67;2.00;;;15.20;99.90;;;;;;5018808;28;20197;-90
2024/01/05 01:01:42;;;;;;;4.37;1.83;;;15.20;99.90;;;;;;5018633;28;20181;-91
2024/01/05 01:04:10;;;;;;;2.47;2.10;;;15.20;99.90;;;;;;5017813;28;20251;-91
2024/01/05 01:06:36;;;;;;;4.50;1.90;;;15.20;99.90;;;;;;5017685;28;20208;-91
2024/01/05 01:09:03;;;;;;;3.60;2.00;;;15.20;99.90;;;;;;5015039;28;20205;-90
2024/01/05 01:11:32;;;;;;;2.90;1.97;;;15.20;99.90;;;;;;5016394;28;20179;-91
2024/01/05 01:14:00;;;;;;;2.80;1.77;;;15.20;99.90;;;;;;5018062;28;20182;-91
2024/01/05 01:16:29;;;;;;;3.17;1.70;;;15.20;99.90;;;;;;5017415;28;20173;-91
2024/01/05 01:19:09;;;;;;;2.23;1.73;;;15.20;99.90;;;;;;5015583;28;20581;-91
2024/01/05 01:21:38;;;;;;;3.00;1.80;;;15.20;99.90;;;;;;5016765;28;20657;-91
2024/01/05 01:24:10;;;;;;;3.13;2.00;;;15.20;99.90;;;;;;5015096;28;20169;-91
2024/01/05 01:26:39;;;;;;;3.90;1.97;;;15.20;99.90;;;;;;5016044;28;20173;-90
2024/01/05 01:29:08;;;;;;;3.67;2.00;;;15.20;99.90;;;;;;5015575;28;20209;-91
2024/01/05 01:31:36;;;;;;;3.80;2.20;;;15.10;99.90;;;;;;5014913;28;20180;-91
2024/01/05 01:34:02;;;;;;;3.03;1.77;;;15.20;99.90;;;;;;5015859;28;20193;-91
2024/01/05 01:36:28;;;;;;;3.87;2.13;;;15.10;99.90;;;;;;5016289;28;20368;-91
2024/01/05 01:38:57;;;;;;;2.17;1.73;;;15.20;99.90;;;;;;5016031;28;20276;-91
2024/01/05 01:41:31;;;;;;;3.53;1.70;;;15.10;99.90;;;;;;5014686;28;20512;-91
2024/01/05 01:44:00;;;;;;;2.47;1.80;;;15.10;99.90;;;;;;5015226;28;20506;-91
2024/01/05 01:46:26;;;;;;;3.20;1.93;;;15.10;99.90;;;;;;5014195;28;20269;-90
2024/01/05 01:48:54;;;;;;;2.17;1.60;;;15.10;99.90;;;;;;5015148;28;20216;-91
2024/01/05 01:51:24;;;;;;;3.37;2.00;;;15.10;99.90;;;;;;5015976;28;20623;-91
2024/01/05 01:53:53;;;;;;;2.30;1.63;;;15.10;99.90;;;;;;5017735;28;20185;-91
2024/01/05 01:56:19;;;;;;;1.90;1.50;;;15.10;99.90;;;;;;5015979;28;20169;-91
2024/01/05 01:58:45;;;;;;;2.93;2.00;;;15.10;99.90;;;;;;5014496;28;20486;-91
2024/01/05 02:01:12;;;;;;;4.10;1.77;;;15.10;99.90;;;;;;5015025;28;20181;-91
2024/01/05 02:03:43;;;;;;;4.50;1.80;;;15.10;99.90;;;;;;5015010;28;20182;-90
2024/01/05 02:06:12;;;;;;;2.33;1.60;;;15.10;99.90;;;;;;5015039;28;20209;-90
2024/01/05 02:08:47;;;;;;;3.40;1.90;;;15.10;99.90;;;;;;5013469;28;20215;-91
2024/01/05 02:11:14;;;;;;;1.77;1.47;;;15.00;99.90;;;;;;5014825;28;20168;-90
2024/01/05 02:13:56;;;;;;;2.27;1.77;;;15.00;99.90;;;;;;5015250;28;20182;-90
2024/01/05 02:16:22;;;;;;;4.33;2.00;;;15.10;99.90;;;;;;5014157;28;20177;-91
2024/01/05 02:18:55;;;;;;;2.30;1.50;;;15.00;99.90;;;;;;5015692;28;20176;-90
2024/01/05 02:21:33;;;;;;;2.43;1.70;;;15.10;99.90;;;;;;5015478;28;20191;-90
2024/01/05 02:24:02;;;;;;;2.60;1.60;;;15.00;99.90;;;;;;5015409;28;20177;-90
2024/01/05 02:26:34;;;;;;;2.27;1.60;;;15.00;99.90;;;;;;5017333;28;20176;-90
2024/01/05 02:29:03;;;;;;;2.53;1.60;;;15.00;99.90;;;;;;5017256;28;20298;-91
2024/01/05 02:31:32;;;;;;;2.77;1.40;;;15.00;99.90;;;;;;5016558;28;20592;-90
2024/01/05 02:34:00;;;;;;;2.40;1.60;;;15.00;99.80;;;;;;5014707;28;20224;-90
2024/01/05 02:36:37;;;;;;;2.27;1.50;;;15.00;99.80;;;;;;5015265;28;20553;-90
2024/01/05 02:39:06;;;;;;;2.57;1.60;;;15.00;99.80;;;;;;4999720;28;20181;-90
2024/01/05 02:41:33;;;;;;;3.47;1.70;;;15.00;99.80;;;;;;5014938;28;20172;-90
2024/01/05 02:44:05;;;;;;;2.27;1.30;;;15.00;99.70;;;;;;5015836;28;20170;-90
2024/01/05 02:46:35;;;;;;;2.70;1.60;;;15.00;99.70;;;;;;5015519;28;20172;-90
2024/01/05 02:49:01;;;;;;;1.93;1.40;;;15.00;99.70;;;;;;5015934;28;20303;-90
2024/01/05 02:51:26;;;;;;;2.93;1.50;;;15.00;99.70;;;;;;5016642;28;20557;-90
2024/01/05 02:53:58;;;;;;;1.93;1.53;;;15.00;99.90;;;;;;5014757;28;20549;-90
2024/01/05 02:56:24;;;;;;;2.73;1.70;;;15.00;99.70;;;;;;5016013;28;20206;-90
2024/01/05 02:58:54;;;;;;;2.90;1.67;;;15.00;99.70;;;;;;5015053;28;20503;-90
2024/01/05 03:01:20;;;;;;;2.30;1.47;;;15.00;99.70;;;;;;5015922;28;20188;-90
2024/01/05 03:04:07;;;;;;;2.47;1.60;;;15.00;99.60;;;;;;5017285;28;20185;-90
2024/01/05 03:06:36;;;;;;;2.30;1.50;;;15.10;99.60;;;;;;5018118;28;20185;-90
2024/01/05 03:09:01;;;;;;;1.47;1.20;;;15.00;99.60;;;;;;5016850;28;20212;-90
2024/01/05 03:11:30;;;;;;;2.60;1.40;;;15.00;99.60;;;;;;5015793;28;20171;-90
2024/01/05 03:13:56;;;;;;;2.00;1.40;;;15.00;99.50;;;;;;5015161;28;20209;-90
2024/01/05 03:16:24;;;;;;;1.87;1.57;;;15.00;99.50;;;;;;5015334;28;20260;-90
2024/01/05 03:18:53;;;;;;;2.53;1.63;;;15.10;99.50;;;;;;5015020;28;20183;-90
2024/01/05 03:21:27;;;;;;;2.20;1.63;;;15.10;99.40;;;;;;5015736;28;20193;-90
2024/01/05 03:23:55;;;;;;;2.43;1.80;;;15.00;99.40;;;;;;5015007;28;20203;-90
2024/01/05 03:26:21;;;;;;;2.47;1.50;;;15.10;99.40;;;;;;5015808;28;20272;-90
2024/01/05 03:28:47;;;;;;;2.93;1.60;;;15.10;99.40;;;;;;5014006;28;20309;-90
2024/01/05 03:31:13;;;;;;;2.87;1.57;;;15.10;99.40;;;;;;5013959;28;20194;-90
2024/01/05 03:33:40;;;;;;;2.83;1.60;;;15.10;99.30;;;;;;5014020;28;20230;-90
2024/01/05 03:36:06;;;;;;;2.73;1.50;;;15.10;99.30;;;;;;5014813;28;20169;-90
2024/01/05 03:38:35;;;;;;;3.07;1.60;;;15.10;99.30;;;;;;5015152;28;20170;-90
2024/01/05 03:41:03;;;;;;;2.40;1.50;;;15.10;99.20;;;;;;5013687;28;20180;-90
2024/01/05 03:43:29;;;;;;;3.13;1.57;;;15.10;99.20;;;;;;5012630;28;20716;-90
2024/01/05 03:45:55;;;;;;;2.67;1.47;;;15.10;99.10;;;;;;5012846;28;20170;-90
2024/01/05 03:48:22;;;;;;;2.20;1.40;;;15.10;99.10;;;;;;5013050;28;20277;-90
2024/01/05 03:50:48;;;;;;;3.07;1.60;;;15.20;99.10;;;;;;5014400;28;20186;-90
2024/01/05 03:53:15;;;;;;;2.47;1.37;;;15.10;99.10;;;;;;5014094;28;20184;-90
2024/01/05 03:55:41;;;;;;;2.87;1.50;;;15.10;99.10;;;;;;5015956;28;20226;-90
2024/01/05 03:58:07;;;;;;;3.93;1.57;;;15.20;99.10;;;;;;5013919;28;20274;-90
2024/01/05 04:00:36;;;;;;;1.80;1.30;;;15.10;99.00;;;;;;5013993;28;20184;-90
2024/01/05 04:03:04;;;;;;;2.63;1.60;;;15.20;98.90;;;;;;5013533;28;20176;-90
2024/01/05 04:05:29;;;;;;;2.63;1.40;;;15.10;98.80;;;;;;5014740;28;20212;-90
2024/01/05 04:07:56;;;;;;;3.43;1.47;;;15.10;98.90;;;;;;5013530;28;20247;-89
2024/01/05 04:10:27;;;;;;;2.03;1.60;;;15.10;98.90;;;;;;5012211;28;20169;-89
2024/01/05 04:12:55;;;;;;;2.57;1.30;;;15.00;99.00;;;;;;5014340;28;20177;-90
2024/01/05 04:15:24;;;;;;;2.00;1.30;;;15.00;99.00;;;;;;5013813;28;20205;-90
2024/01/05 04:17:50;;;;;;;3.00;1.67;;;15.00;99.10;;;;;;5016240;28;20604;-89
2024/01/05 04:20:16;;;;;;;2.17;1.30;;;15.00;99.10;;;;;;5014682;28;20195;-89
2024/01/05 04:22:44;;;;;;;2.80;1.43;;;15.00;99.10;;;;;;5014484;28;20352;-89
2024/01/05 04:25:11;;;;;;;2.30;1.50;;;14.90;99.10;;;;;;5013862;28;20181;-89
2024/01/05 04:27:38;;;;;;;2.43;1.20;;;14.90;99.20;;;;;;5014402;28;20480;-89
2024/01/05 04:30:04;;;;;;;2.63;1.30;;;14.90;99.30;;;;;;5013464;28;20176;-89
2024/01/05 04:32:38;;;;;;;3.37;1.43;;;14.90;99.30;;;;;;5013552;28;20620;-89
2024/01/05 04:35:04;;;;;;;2.03;1.30;;;15.00;99.20;;;;;;5012579;28;20363;-89
2024/01/05 04:37:35;;;;;;;3.03;1.47;;;15.00;99.00;;;;;;5013558;28;20184;-89
2024/01/05 04:40:06;;;;;;;2.27;1.40;;;15.10;98.90;;;;;;5012930;28;20213;-89
2024/01/05 04:42:35;;;;;;;1.77;1.30;;;15.20;98.70;;;;;;5012821;28;20602;-89
2024/01/05 04:45:00;;;;;;;2.67;1.30;;;15.30;98.40;;;;;;5013024;28;20192;-89
2024/01/05 04:47:29;;;;;;;1.37;1.10;;;15.50;97.90;;;;;;5012217;28;20563;-89
2024/01/05 04:49:57;;;;;;;2.00;1.30;;;15.70;97.30;;;;;;5013130;28;20235;-89
2024/01/05 04:52:24;;;;;;;2.63;1.30;;;15.90;96.70;;;;;;5013114;28;20176;-89
2024/01/05 04:54:49;;;;;;;2.70;1.40;;;16.00;96.30;;;;;;5013442;28;20216;-89
2024/01/05 04:57:15;;;;;;;2.00;1.27;;;16.10;96.20;;;;;;5011286;28;20217;-89
2024/01/05 04:59:41;;;;;;;1.43;1.10;;;16.00;96.30;;;;;;5009849;28;20220;-89
2024/01/05 05:02:16;;;;;;;2.73;1.30;;;16.00;96.40;;;;;;5010881;28;20380;-89
2024/01/05 05:04:45;;;;;;;1.60;1.20;;;15.80;96.80;;;;;;5011639;28;20493;-89
2024/01/05 05:07:11;;;;;;;2.33;1.37;;;15.80;96.70;;;;;;5011176;28;20227;-89
2024/01/05 05:09:37;;;;;;;2.10;1.37;;;15.70;96.90;;;;;;5011051;28;20209;-89
2024/01/05 05:12:06;;;;;;;2.40;1.27;;;15.60;97.00;;;;;;5012735;28;20231;-89
2024/01/05 05:14:41;;;;;;;1.77;1.20;;;15.60;97.20;;;;;;5012027;28;20166;-89
2024/01/05 05:17:07;;;;;;;2.80;1.23;;;15.50;97.30;;;;;;5011650;28;20174;-88
2024/01/05 05:19:33;;;;;;;1.80;1.27;;;15.50;97.40;;;;;;5012380;28;20235;-89
2024/01/05 05:22:04;;;;;;;2.47;1.50;;;15.40;97.50;;;;;;5010087;28;20181;-89
2024/01/05 05:24:33;;;;;;;2.33;1.30;;;15.40;97.60;;;;;;5011008;28;20183;-88
2024/01/05 05:27:04;;;;;;;1.90;1.20;;;15.40;97.70;;;;;;5011348;28;20199;-88
2024/01/05 05:29:33;;;;;;;1.83;1.40;;;15.30;97.80;;;;;;5013319;28;20308;-88
2024/01/05 05:32:02;;;;;;;3.27;1.30;;;15.30;97.90;;;;;;5011291;28;20222;-89
2024/01/05 05:34:30;;;;;;;1.50;1.37;;;15.20;98.00;;;;;;5010918;28;20526;-89
2024/01/05 05:37:01;;;;;;;1.90;1.20;;;15.20;98.00;;;;;;5010419;28;20257;-88
2024/01/05 05:39:27;;;;;;;2.30;1.37;;;15.20;98.10;;;;;;5010645;28;20202;-88
2024/01/05 05:42:00;;;;;;;2.27;1.30;;;15.20;98.20;;;;;;5011171;28;20236;-89
2024/01/05 05:44:26;;;;;;;2.43;1.20;;;15.20;98.20;;;;;;5013637;28;20226;-89
2024/01/05 05:46:56;;;;;;;3.33;1.60;;;15.10;98.20;;;;;;5014858;28;20238;-89
2024/01/05 05:49:22;;;;;;;2.00;1.50;;;15.10;98.30;;;;;;5015878;28;20194;-88
2024/01/05 05:51:52;;;;;;;2.57;1.40;;;15.10;98.40;;;;;;5014832;28;20178;-88
2024/01/05 05:54:22;;;;;;;3.43;1.40;;;15.20;98.40;;;;;;5014244;28;20231;-89
2024/01/05 05:56:51;;;;;;;2.90;1.50;;;15.20;98.20;;;;;;5014370;28;20184;-88
2024/01/05 05:59:17;;;;;;;2.07;1.50;;;15.30;98.00;;;;;;5013489;28;20281;-88
2024/01/05 06:01:45;;;;;;;3.00;1.30;;;15.30;98.00;;;;;;5011567;28;20267;-89
2024/01/05 06:04:13;;;;;;;2.37;1.40;;;15.30;98.00;;;;;;5012564;28;20171;-89
2024/01/05 06:06:44;;;;;;;2.43;1.20;;;15.30;97.90;;;;;;5015171;28;20181;-89
2024/01/05 06:09:14;;;;;;;2.73;1.40;;;15.40;97.90;;;;;;5012024;28;20232;-89
2024/01/05 06:11:40;;;;;;;2.27;1.27;;;15.40;97.80;;;;;;5015365;28;20625;-88
2024/01/05 06:14:06;;;;;;;1.80;1.30;;;15.50;97.70;;;;;;5014708;28;20202;-88
2024/01/05 06:16:40;;;;;;;2.40;1.40;;;15.50;97.60;;;;;;5014445;28;20216;-88
2024/01/05 06:19:06;;;;;;;2.33;1.40;;;15.50;97.50;;;;;;5014741;28;20246;-88
2024/01/05 06:21:37;;;;;;;2.77;1.40;;;15.50;97.40;;;;;;5015199;28;20225;-88
2024/01/05 06:24:03;;;;;;;1.90;1.27;;;15.50;97.40;;;;;;5013278;28;20178;-88
2024/01/05 06:26:30;;;;;;;3.27;1.60;;;15.50;97.40;;;;;;5013689;28;20615;-88
2024/01/05 06:28:56;;;;;;;2.53;1.57;;;15.50;97.40;;;;;;5014433;28;20707;-89
2024/01/05 06:31:23;;;;;;;1.60;1.27;;;15.50;97.60;;;;;;5013620;28;20173;-88
2024/01/05 06:33:49;;;;;;;3.40;1.77;;;15.40;97.70;;;;;;5016256;28;20176;-88
2024/01/05 06:36:17;;;;;;;2.63;1.70;;;15.40;98.00;;;;;;5015189;28;20197;-89
2024/01/05 06:38:46;;;;;;;2.73;1.50;;;15.30;98.30;;;;;;5012797;28;20174;-89
2024/01/05 06:41:12;;;;;;;2.53;1.57;;;15.30;98.40;;;;;;5012687;28;20185;-89
2024/01/05 06:43:40;;;;;;;1.93;1.40;;;15.30;98.70;;;;;;5013122;28;20198;-89
2024/01/05 06:46:09;;;;;;;2.30;1.60;;;15.20;98.70;;;;;;5010529;28;20280;-88
2024/01/05 06:48:37;;;;;;;2.90;1.50;;;15.20;98.80;;;;;;5010126;28;20236;-89
2024/01/05 06:51:06;;;;;;;4.67;1.40;;;15.20;99.00;;;;;;5011558;28;20207;-89
2024/01/05 06:53:32;;;;;;;3.40;1.50;;;15.10;99.10;;;;;;5012233;28;20174;-89
2024/01/05 06:55:57;;;;;;;7.50;1.43;;;15.10;99.30;;;;;;5010560;28;20230;-89
2024/01/05 06:58:27;;;;;;;2.17;1.77;;;15.10;99.40;;;;;;5012665;28;20612;-89
2024/01/05 07:00:56;;;;;;;2.97;1.63;;;15.10;99.50;;;;;;5011881;28;20220;-89
2024/01/05 07:03:25;;;;;;;7.17;2.17;;;15.10;99.70;;;;;;5011438;28;20182;-89
2024/01/05 07:05:51;;;;;;;7.23;1.83;;;15.10;99.70;;;;;;5011940;28;20220;-89
2024/01/05 07:08:17;;;;;;;5.37;1.50;;;15.10;99.70;;;;;;5010485;28;20311;-89
2024/01/05 07:10:43;;;;;;;6.90;2.30;;;15.20;99.70;;;;;;5011050;28;20225;-89
2024/01/05 07:13:09;;;;;;;8.43;2.13;;;15.20;99.70;;;;;;5010525;28;20562;-89
2024/01/05 07:15:34;;;;;;;5.40;1.90;;;15.20;99.70;;;;;;5011030;28;20181;-89
2024/01/05 07:18:05;;;;;;;6.73;1.80;;;15.20;99.70;;;;;;5012977;28;20220;-89
2024/01/05 07:20:32;;;;;;;5.37;1.70;;;15.20;99.80;;;;;;5010922;28;20177;-89
2024/01/05 07:22:59;;;;;;;5.17;1.80;;;15.20;99.90;;;;;;5009705;28;20185;-89
2024/01/05 07:25:25;;;;;;;4.83;1.73;;;15.20;99.90;;;;;;5020881;28;20352;-89
2024/01/05 07:27:50;;;;;;;5.33;1.70;;;15.20;99.90;;;;;;5029791;28;20235;-89
2024/01/05 07:30:16;;;;;;;7.77;1.80;;;15.20;99.90;;;;;;5029574;28;20272;-89
2024/01/05 07:32:45;;;;;;;5.30;1.87;;;15.20;99.90;;;;;;5030052;28;20184;-89
2024/01/05 07:35:14;;;;;;;6.83;1.83;;;15.30;99.90;;;;;;5028809;28;20196;-89
2024/01/05 07:37:46;;;;;;;4.23;1.87;;;15.30;99.80;;;;;;5029763;28;20566;-89
2024/01/05 07:40:18;;;;;;;5.23;1.80;;;15.30;99.80;;;;;;5029738;28;20185;-89
2024/01/05 07:42:43;;;;;;;5.50;1.73;;;15.30;99.80;;;;;;5029328;28;20181;-89
2024/01/05 07:45:12;;;;;;;6.43;1.93;;;15.30;99.70;;;;;;5027713;28;20180;-89
2024/01/05 07:47:38;;;;;;;5.70;1.77;;;15.30;99.80;;;;;;5027417;28;20169;-89
2024/01/05 07:50:04;;;;;;;3.80;1.70;;;15.30;99.70;;;;;;5025506;28;20172;-89
2024/01/05 07:52:33;;;;;;;4.40;1.57;;;15.30;99.70;;;;;;5024636;28;20577;-88
2024/01/05 07:55:01;;;;;;;4.33;1.67;;;15.30;99.70;;;;;;5023623;28;20188;-89
2024/01/05 07:57:28;;;;;;;3.70;1.80;;;15.30;99.80;;;;;;5025149;28;20169;-89
2024/01/05 07:59:57;;;;;;;5.20;1.73;;;15.20;99.70;;;;;;5026015;28;20176;-89
2024/01/05 08:02:22;;;;;;;3.17;1.67;;;15.20;99.70;;;;;;5027886;28;20309;-89
2024/01/05 08:04:49;;;;;;;3.07;1.40;;;15.20;99.80;;;;;;5029446;28;20250;-89
2024/01/05 08:07:18;;;;;;;3.93;1.80;;;15.20;99.80;;;;;;5024642;28;20172;-89
2024/01/05 08:09:44;;;;;;;3.40;1.57;;;15.20;99.80;;;;;;5028408;28;20208;-89
2024/01/05 08:12:10;;;;;;;2.83;1.40;;;15.20;99.80;;;;;;5026004;28;20169;-89
2024/01/05 08:14:37;;;;;;;3.30;1.40;;;15.20;99.70;;;;;;5026306;28;20176;-89
2024/01/05 08:17:09;;;;;;;3.60;1.60;;;15.20;99.70;;;;;;5026063;28;20240;-89
2024/01/05 08:19:38;;;;;;;3.23;1.60;;;15.10;99.70;;;;;;5025554;28;20837;-88
2024/01/05 08:22:04;;;;;;;3.23;1.27;;;15.10;99.60;;;;;;5026528;28;20581;-89
2024/01/05 08:24:30;;;;;;;4.60;1.80;;;15.10;99.60;;;;;;5027545;28;20584;-89
2024/01/05 08:26:56;;;;;;;2.57;1.50;;;15.20;99.60;;;;;;5025095;28;20195;-89
2024/01/05 08:29:25;;;;;;;3.40;1.53;;;15.20;99.40;;;;;;5028786;28;20593;-89
2024/01/05 08:31:51;;;;;;;3.17;1.40;;;15.20;99.30;;;;;;5028290;28;20199;-88
2024/01/05 08:34:17;;;;;;;2.57;1.63;;;15.30;99.30;;;;;;5029124;28;20196;-89
2024/01/05 08:36:43;;;;;;;3.13;1.57;;;15.30;99.10;;;;;;5031699;28;20181;-89
2024/01/05 08:39:12;;;;;;;3.50;1.50;;;15.30;99.00;;;;;;5030815;28;20172;-89
2024/01/05 08:41:37;;;;;;;3.47;1.60;;;15.40;98.80;;;;;;5030967;28;20183;-89
2024/01/05 08:44:08;;;;;;;1.80;1.40;;;15.40;98.60;;;;;;5026974;28;20177;-89
2024/01/05 08:46:34;;;;;;;2.97;1.30;;;15.50;98.50;;;;;;5025402;28;20303;-88
2024/01/05 08:49:00;;;;;;;3.10;1.50;;;15.50;98.40;;;;;;5026177;28;20212;-89
2024/01/05 08:51:26;;;;;;;2.03;1.20;;;15.50;98.30;;;;;;5027368;28;20188;-88
2024/01/05 08:53:57;;;;;;;2.83;1.50;;;15.50;98.20;;;;;;5027550;28;20536;-89
2024/01/05 08:56:26;;;;;;;4.20;1.60;;;15.60;98.20;;;;;;5032259;28;20164;-88
2024/01/05 08:58:52;;;;;;;3.77;1.40;;;15.60;98.10;;;;;;5031364;28;20177;-89
2024/01/05 09:01:24;;;;;;;3.13;1.47;;;15.50;98.10;;;;;;5031272;28;20187;-89
2024/01/05 09:03:55;;;;;;;2.03;1.20;;;15.50;98.10;;;;;;5030812;28;20186;-89
2024/01/05 09:06:21;;;;;;;2.50;1.37;;;15.50;98.10;;;;;;5028186;28;20194;-88
2024/01/05 09:08:47;;;;;;;2.77;1.27;;;15.50;98.10;;;;;;5025041;28;20205;-89
2024/01/05 09:11:16;;;;;;;2.37;1.20;;;15.90;97.50;;;;;;5022278;28;20184;-89
2024/01/05 09:13:44;;;;;;;3.87;1.23;;;15.80;97.20;;;;;;5024490;28;20200;-88
2024/01/05 09:16:12;;;;;;;2.77;1.60;;;15.70;97.50;;;;;;5025874;28;20185;-89
2024/01/05 09:18:40;;;;;;;3.17;1.43;;;15.50;97.60;;;;;;5029023;28;20264;-89
2024/01/05 09:21:10;;;;;;;2.40;1.37;;;15.50;97.80;;;;;;5032774;28;20173;-89
2024/01/05 09:23:37;;;;;;;3.70;1.40;;;15.40;97.90;;;;;;5032098;28;20181;-89
2024/01/05 09:26:03;;;;;;;2.67;1.73;;;15.30;97.90;;;;;;5029567;28;20181;-89
2024/01/05 09:28:29;;;;;;;3.47;1.50;;;15.30;97.90;;;;;;5031471;28;20546;-89
2024/01/05 09:30:58;;;;;;;3.10;1.33;;;15.30;98.00;;;;;;5031181;28;20257;-88
2024/01/05 09:33:24;;;;;;;2.77;1.33;;;15.30;97.90;;;;;;5030345;28;20173;-88
2024/01/05 09:35:53;;;;;;;2.90;1.27;;;15.20;97.90;;;;;;5030618;28;20220;-88
2024/01/05 09:38:19;;;;;;;2.77;1.20;;;15.20;97.80;;;;;;5029502;28;20235;-88
2024/01/05 09:40:52;;;;;;;2.13;1.40;;;15.20;97.80;;;;;;5024727;28;20320;-88
2024/01/05 09:43:25;;;;;;;2.33;1.10;;;15.20;97.70;;;;;;5015736;28;20272;-88
2024/01/05 09:45:51;;;;;;;3.60;1.40;;;15.30;97.80;;;;;;5010692;28;20451;-88
2024/01/05 09:48:22;;;;;;;1.40;1.10;;;15.40;97.90;;;;;;5009591;28;20217;-88
2024/01/05 09:50:52;;;;;;;3.23;1.27;;;15.40;97.90;;;;;;5009224;28;20355;-88
2024/01/05 09:53:22;;;;;;;1.87;1.20;;;15.50;97.90;;;;;;5011867;28;20173;-88
2024/01/05 09:55:49;;;;;;;4.33;1.40;;;15.50;97.80;;;;;;5012963;28;20174;-88
2024/01/05 09:58:16;;;;;;;2.43;1.20;;;15.70;97.50;;;;;;5012057;28;20356;-88
2024/01/05 10:00:49;;;;;;;1.57;1.20;;;15.90;97.50;;;;;;5010732;28;20437;-89
2024/01/05 10:03:24;;;;;;;3.63;1.30;;;16.00;96.90;;;;;;5011988;28;20185;-88
2024/01/05 10:05:53;;;;;;;3.20;1.20;;;15.90;96.90;;;;;;5013186;28;20182;-88
2024/01/05 10:08:23;;;;;;;3.63;1.30;;;15.90;96.90;;;;;;5009065;28;20210;-88
2024/01/05 10:10:52;;;;;;;4.00;1.47;;;15.90;96.90;;;;;;5011619;28;20169;-88
2024/01/05 10:13:21;;;;;;;3.50;1.20;;;15.90;97.00;;;;;;5010214;28;20359;-88
2024/01/05 10:16:04;;;;;;;1.87;1.10;;;15.80;97.10;;;;;;5010117;28;20177;-88
2024/01/05 10:18:30;;;;;;;4.53;1.50;;;15.80;97.20;;;;;;5007474;28;20204;-88
2024/01/05 10:21:07;;;;;;;2.23;1.20;;;15.70;97.30;;;;;;5011591;28;20349;-88
2024/01/05 10:24:00;;;;;;;2.87;1.30;;;15.70;97.40;;;;;;5010973;28;20336;-88
2024/01/05 10:26:26;;;;;;;1.97;1.20;;;15.70;97.60;;;;;;5009868;28;20178;-88
2024/01/05 10:28:52;;;;;;;2.30;1.30;;;15.60;97.70;;;;;;5021531;28;20204;-88
2024/01/05 10:31:24;;;;;;;3.60;1.50;;;15.60;98.00;;;;;;5035564;28;20323;-88
2024/01/05 10:33:51;;;;;;;1.90;1.47;;;15.50;98.20;;;;;;5032223;28;20204;-88
2024/01/05 10:36:28;;;;;;;3.03;1.40;;;15.50;98.40;;;;;;5031376;28;20433;-88
2024/01/05 10:38:56;;;;;;;2.13;1.20;;;15.50;98.60;;;;;;5028166;28;20173;-88
2024/01/05 10:41:21;;;;;;;4.63;1.50;;;15.40;98.70;;;;;;5029818;28;20585;-87
2024/01/05 10:43:48;;;;;;;4.10;1.43;;;15.40;98.80;;;;;;5027911;28;20183;-87
2024/01/05 10:46:17;;;;;;;3.70;1.50;;;15.40;98.90;;;;;;5024279;28;20373;-87
2024/01/05 10:48:46;;;;;;;3.83;1.47;;;15.40;99.00;;;;;;5027268;28;20392;-87
2024/01/05 10:51:15;;;;;;;4.20;1.20;;;15.30;99.00;;;;;;5029157;28;20179;-87
2024/01/05 10:53:46;;;;;;;3.00;1.40;;;15.30;99.10;;;;;;5028730;28;20176;-87
2024/01/05 10:56:14;;;;;;;2.97;1.30;;;15.30;99.10;;;;;;5027840;28;20184;-87
2024/01/05 10:58:42;;;;;;;2.33;1.13;;;15.30;99.10;;;;;;5026678;28;20177;-87
2024/01/05 11:01:12;;;;;;;3.63;1.10;;;15.40;99.10;;;;;;5029122;28;20173;-87
2024/01/05 11:03:43;;;;;;;4.30;1.10;;;15.40;99.00;;;;;;5038465;28;20249;-87
2024/01/05 11:06:11;;;;;;;2.43;1.17;;;15.50;98.80;;;;;;5030045;28;20189;-87
2024/01/05 11:08:49;;;;;;;3.30;1.20;;;15.50;98.70;;;;;;5030898;28;20255;-87
2024/01/05 11:11:46;;;;;;;3.87;1.20;;;15.60;98.50;;;;;;5029990;28;20181;-87
2024/01/05 11:14:37;;;;;;;2.70;1.20;;;15.70;98.00;;;;;;5031915;28;20495;-87
2024/01/05 11:17:11;;;;;;;2.50;1.10;;;15.90;97.50;;;;;;5032621;28;20224;-88
2024/01/05 11:19:59;;;;;;;2.57;1.00;;;16.00;97.20;;;;;;5032615;28;20589;-87
2024/01/05 11:22:47;;;;;;;2.03;1.10;;;16.10;96.90;;;;;;5027016;28;20252;-88
2024/01/05 11:25:15;;;;;;;2.43;1.00;;;16.10;96.80;;;;;;5020910;28;20208;-88
2024/01/05 11:27:47;;;;;;;3.70;1.20;;;16.10;96.60;;;;;;5030103;28;20249;-88
2024/01/05 11:30:13;;;;;;;2.97;1.00;;;16.00;96.70;;;;;;5030050;28;20180;-88
2024/01/05 11:32:46;;;;;;;1.93;1.10;;;15.90;96.70;;;;;;5026848;28;20230;-88
2024/01/05 11:35:21;;;;;;;4.40;1.20;;;15.80;96.80;;;;;;5027874;28;20192;-88
2024/01/05 11:37:47;;;;;;;1.80;1.07;;;15.70;97.00;;;;;;5027961;28;20281;-88
2024/01/05 11:40:28;;;;;;;2.43;0.90;;;15.70;97.10;;;;;;5027573;28;20181;-88
2024/01/05 11:42:54;;;;;;;3.17;1.03;;;15.60;97.20;;;;;;5026919;28;20564;-87
2024/01/05 11:45:46;;;;;;;1.83;1.10;;;15.60;97.40;;;;;;5027790;28;20250;-88
2024/01/05 11:48:33;;;;;;;1.00;0.80;;;15.50;97.40;;;;;;5029048;28;20220;-88
2024/01/05 11:51:09;;;;;;;2.03;1.10;;;15.40;97.50;;;;;;5028833;28;20168;-88
2024/01/05 11:53:35;;;;;;;1.20;1.00;;;15.40;97.60;;;;;;5027595;28;20615;-88
2024/01/05 11:56:03;;;;;;;1.10;1.00;;;15.30;97.70;;;;;;5029305;28;20231;-87
2024/01/05 11:58:38;;;;;;;1.50;1.10;;;15.30;97.80;;;;;;5029771;28;20203;-88
2024/01/05 12:01:12;;;;;;;1.90;1.03;;;15.20;97.80;;;;;;5027304;28;20783;-88
2024/01/05 12:03:39;;;;;;;1.00;0.90;;;15.30;97.90;;;;;;5034812;28;20190;-88
2024/01/05 12:06:06;;;;;;;2.93;1.00;;;15.20;98.00;;;;;;5025118;28;20220;-88
2024/01/05 12:08:33;;;;;;;1.77;0.90;;;15.20;98.00;;;;;;5025041;28;20215;-88
2024/01/05 12:11:02;;;;;;;1.30;0.90;;;15.20;98.00;;;;;;5025886;28;20223;-87
2024/01/05 12:13:30;;;;;;;2.60;1.00;;;15.10;98.00;;;;;;5027103;28;20703;-88
2024/01/05 12:16:14;;;;;;;1.07;0.97;;;15.10;98.00;;;;;;5025707;28;20260;-88
2024/01/05 12:18:46;;;;;;;1.63;1.00;;;15.10;98.00;;;;;;5027519;28;20173;-88
2024/01/05 12:21:14;;;;;;;1.77;1.07;;;15.10;98.10;;;;;;5026104;28;20177;-88
2024/01/05 12:23:50;;;;;;;1.20;1.03;;;15.20;98.10;;;;;;5024922;28;20200;-88
2024/01/05 12:26:16;;;;;;;1.50;1.10;;;15.20;97.80;;;;;;5023597;28;20604;-88
2024/01/05 12:28:42;;;;;;;2.13;0.90;;;15.40;97.50;;;;;;5024284;28;20239;-88
2024/01/05 12:31:09;;;;;;;1.20;1.00;;;15.50;97.10;;;;;;5024277;28;20223;-88
2024/01/05 12:33:37;;;;;;;2.00;1.00;;;15.60;96.90;;;;;;5021417;28;20181;-88
2024/01/05 12:36:14;;;;;;;1.33;0.93;;;15.70;96.60;;;;;;5023302;28;20410;-88
2024/01/05 12:38:40;;;;;;;1.50;0.77;;;15.80;96.20;;;;;;5024641;28;20375;-88
2024/01/05 12:41:11;;;;;;;1.13;0.93;;;15.90;95.90;;;;;;5024517;28;20173;-88
2024/01/05 12:43:38;;;;;;;1.43;0.80;;;16.00;95.70;;;;;;5027403;28;20360;-88
2024/01/05 12:46:06;;;;;;;2.70;1.20;;;16.10;95.50;;;;;;5026158;28;20169;-87
2024/01/05 12:48:32;;;;;;;1.63;1.10;;;16.10;95.20;;;;;;5027772;28;20209;-88
2024/01/05 12:51:08;;;;;;;1.70;1.00;;;16.20;95.00;;;;;;5025483;28;20363;-88
2024/01/05 12:53:37;;;;;;;1.67;0.90;;;16.20;94.70;;;;;;5025388;28;20482;-88
2024/01/05 12:56:13;;;;;;;1.73;1.00;;;16.30;94.80;;;;;;5025171;28;20169;-88
2024/01/05 12:58:47;;;;;;;1.33;0.80;;;16.20;94.70;;;;;;5025798;28;20271;-88